Sunday, November 19, 2017, 9:00 PM EST
Back to Local

KDSV, Dansville Municipal Airport

Location: Dansville, NY, United States Lat: 42.567
Local Time: 9:00 PM EST ( 2:00 GMT) Lon: -77.717
Time Zone: US/Eastern Elev: 662 ft

Show me the last for .
Show Decoded

2017-11-19 19:54 METAR KDSV 200054Z AUTO 30011G16KT 10SM SCT032 BKN041 OVC080 02/M04 A2977 RMK
                 AO2 SLP095 T00171044 =
2017-11-19 18:54 METAR KDSV 192354Z AUTO 31009G22KT 10SM OVC080 02/M04 A2975 RMK AO2 SLP090 60001
                 T00171044 10044 20017 52026 =
2017-11-19 17:54 METAR KDSV 192254Z AUTO 30006G14KT 10SM FEW031 OVC085 02/M02 A2973 RMK AO2
                 SLP081 T00221022 =
2017-11-19 16:54 METAR KDSV 192154Z AUTO 29005KT 10SM FEW016 SCT021 OVC090 02/M01 A2970 RMK AO2
                 UPB13E27B44E50SNB12E13B27E44 SLP071 P0001 T00221006 =
2017-11-19 16:36 METAR KDSV 192136Z AUTO 31008KT 8SM -SN SCT018 BKN023 OVC033 02/M01 A2969 RMK
                 AO2 UPB13E27SNB12E13B27 P0001 T00171006 =
2017-11-19 15:54 METAR KDSV 192054Z AUTO 32007KT 10SM SCT034 BKN043 OVC090 03/M01 A2967 RMK AO2
                 UPB06E19B29E38RAB19E29SNE06 SLP062 P0000 60000 T00281006 53014 =
2017-11-19 15:42 METAR KDSV 192042Z AUTO 31007KT 10SM BKN030 BKN050 OVC090 03/M01 A2967 RMK AO2
                 UPB06E19B29E38RAB19E29SNE06 P0000 T00281006 =
2017-11-19 15:22 METAR KDSV 192022Z AUTO VRB06KT 8SM -RA BKN025 OVC055 02/M01 A2967 RMK AO2
                 UPB06E19RAB19SNE06 P0000 T00221011 =
2017-11-19 14:54 METAR KDSV 191954Z AUTO 29010G16KT 270V330 9SM -SN SCT040 OVC060 03/M02 A2966
                 RMK AO2 SNB53 SLP055 P0000 T00331022 =
2017-11-19 13:54 METAR KDSV 191854Z AUTO 32013KT 10SM FEW029 SCT044 BKN060 03/M01 A2964 RMK AO2
                 RAB13E42SNB17E26 SLP049 P0000 T00331006 =
2017-11-19 12:54 METAR KDSV 191754Z AUTO 30009G21KT 10SM BKN035 OVC045 04/M03 A2963 RMK AO2
                 SLP046 60000 T00391033 10050 20022 53003 =
2017-11-19 11:54 METAR KDSV 191654Z AUTO 31015G21KT 10SM SCT042 OVC055 05/M03 A2962 RMK AO2
                 SLP041 T00501028 =
2017-11-19 10:54 METAR KDSV 191554Z AUTO 28009KT 10SM FEW027 OVC043 03/M02 A2962 RMK AO2 SLP043
                 T00331017 =
2017-11-19 10:50 METAR KDSV 191550Z AUTO 29008KT 10SM FEW027 SCT036 OVC043 03/M02 A2962 RMK AO2 =
2017-11-19 09:54 METAR KDSV 191454Z AUTO 34010KT 10SM BKN022 BKN028 OVC037 02/00 A2960 RMK AO2
                 UPB01E50RAB40E41 SLP034 P0000 60000 T00220000 51047 =
2017-11-19 09:17 METAR KDSV 191417Z AUTO 33012KT 9SM UP BKN022 OVC036 02/M01 A2959 RMK AO2 UPB01
                 P0000 T00221006 =
2017-11-19 08:54 METAR KDSV 191354Z AUTO 30011G17KT 10SM OVC038 03/M02 A2957 RMK AO2 RAE02 SLP026
                 P0000 T00281017 =
2017-11-19 08:37 METAR KDSV 191337Z AUTO 31013G19KT 10SM SCT021 OVC038 03/M01 A2956 RMK AO2 RAE02
                 P0000 T00281011 =
2017-11-19 07:54 METAR KDSV 191254Z AUTO 31011G25KT 10SM -RA BKN020 OVC028 03/M01 A2952 RMK AO2
                 UPB42E51RAB53 PRESRR SLP009 P0000 T00281006 =
2017-11-19 06:54 METAR KDSV 191154Z AUTO 32010G22KT 10SM BKN023 BKN027 OVC040 03/M01 A2946 RMK
                 AO2 PK WND 30026/1056 UPB10E27 SLP986 P0000 60024 70041 T00281011 10094 20022
                 51076 =
2017-11-19 06:09 METAR KDSV 191109Z AUTO 32019G26KT 10SM BKN023 BKN038 OVC047 03/M01 A2942 RMK
                 AO2 PK WND 30026/1056 PRESRR T00281011 =
2017-11-19 05:54 METAR KDSV 191054Z AUTO 32013G21KT 10SM FEW020 SCT026 OVC046 03/M01 A2940 RMK
                 AO2 PK WND 31030/1005 RAE20UPB20E22 SLP966 P0000 T00281006 =
2017-11-19 05:29 METAR KDSV 191029Z AUTO 31011G20KT 10SM SCT022 SCT027 OVC040 03/M01 A2937 RMK
                 AO2 PK WND 31030/1005 RAE20UPB20E22 PRESRR P0000 T00281006 =
2017-11-19 04:54 METAR KDSV 190954Z AUTO 31009G20KT 10SM -RA BKN022 OVC029 03/00 A2932 RMK AO2
                 PRESRR SLP939 P0002 T00330000 =
2017-11-19 03:54 METAR KDSV 190854Z AUTO 30010G23KT 10SM -RA OVC025 04/02 A2923 RMK AO2 PK WND
                 30030/0820 PRESRR SLP909 P0004 60022 T00440017 53051 =
2017-11-19 02:54 METAR KDSV 190754Z AUTO 31016G20KT 6SM -RA BKN017 OVC025 09/06 A2912 RMK AO2
                 PRESRR SLP869 P0006 T00890061 =
2017-11-19 02:43 METAR KDSV 190743Z AUTO VRB04KT 10SM -RA SCT016 BKN023 OVC028 09/07 A2910 RMK
                 AO2 P0005 T00890072 =
2017-11-19 02:30 METAR KDSV 190730Z AUTO 34008KT 8SM -RA BKN014 BKN022 OVC042 09/07 A2909 RMK AO2
                 P0004 T00890072 =
2017-11-19 01:54 METAR KDSV 190654Z AUTO 14007KT 4SM RA BR FEW042 BKN050 OVC070 08/07 A2904 RMK
                 AO2 SLP842 P0012 T00830067 =
2017-11-19 00:54 METAR KDSV 190554Z AUTO 14005KT 8SM RA FEW060 BKN080 OVC120 09/06 A2907 RMK AO2
                 RAB42 SLP854 P0001 60003 T00940061 10094 20078 58016 =
2017-11-18 23:54 METAR KDSV 190454Z AUTO 13009KT 10SM BKN100 09/06 A2909 RMK AO2 PRESFR SLP858
                 T00890056 400940006 =
2017-11-18 22:54 METAR KDSV 190354Z AUTO 12005KT 10SM CLR 09/06 A2912 RMK AO2 PK WND 17030/0257
                 RAE15 SLP869 P0000 T00890056 =
2017-11-18 21:54 METAR KDSV 190254Z AUTO 17021G32KT 10SM -RA OVC090 09/06 A2912 RMK AO2 PK WND
                 16032/0247 SLP870 P0001 60002 T00940061 58047 =
2017-11-18 21:07 METAR KDSV 190207Z AUTO 16010G19KT 10SM -RA FEW028 OVC095 09/05 A2922 RMK AO2
                 P0000 T00890050 =

Support USWX by starting your Amazon purchase here.